Domov               UVHVVR             MKGP            O straneh              
ZDRAVSTVENO VARSTVO RASTLIN
  MREŽA AGROMET. POSTAJ
 ► PROGNOSTIČNA OBVESTILA
AGROMETEOROLOŠKI PODATKI -
ARSO
OBVLADOVANJE TVEGANJ ZARADI
NEUGODNIH VREMENSKIH RAZMER
  ► NARAVNE NESREČE
  ► SUŠA/MOČA
  ► NAMAKANJE
  ► ŽLED (gozdarstvo)
KARTOGRAFSKI PRIKAZI
SPLETNE POVEZAVE
PROJEKTI IN PUBLIKACIJE

AGROMETEOROLOŠKA MREŽA: VREMENSKE POSTAJE IN FENOLOŠKA OPAZOVANJA

Pregled podatkov za lokacijo Češnjevek (Cerklje), meteorološka postaja 855696

Pregled senzorjev na lokaciji

ID Ime Zadnja
vrednost
Datum
zadnje
spremembe
Tip
senzorja
3854 Padavine (mm) 0 mm 23.3.2019 11:29 Rain-O-Matic
3856 Relativna vlaga 2 m (% RH) 56,65 % RH 23.3.2019 11:30 50YA
3855 Temperatura 2 m (°C) 13,34 °C 23.3.2019 11:30 50YA

Pregled podatkov zadnjih 24 ur

Zap.
št.
Datum in čas Češnjevek (Cerklje)
Padavine Relativna
vlaga
2
m
Temperatura
2
m
1 23.3.2019 11:30
2 23.3.2019 11:00
3 23.3.2019 10:30 0 56,6 13,3
4 23.3.2019 10:00 0 61,2 12,3
5 23.3.2019 09:30 0 65,8 10,6
6 23.3.2019 09:00 0 73 8,1
7 23.3.2019 08:30 0 78,4 6,7
8 23.3.2019 08:00 0 85,6 5,5
9 23.3.2019 07:30 0 96,7 2,2
10 23.3.2019 07:00 0 98,1 0,1
11 23.3.2019 06:30 0 97,9 -0,4
12 23.3.2019 06:00 0 98 0
13 23.3.2019 05:30 0 97,1 -0,2
14 23.3.2019 05:00 0 96,6 0,6
15 23.3.2019 04:30 0 97,6 -0,1
16 23.3.2019 04:00 0 94,6 0,5
17 23.3.2019 03:30 0 95,8 0,3
18 23.3.2019 03:00 0 94 0,5
19 23.3.2019 02:30 0 93,9 1
20 23.3.2019 02:00 0 93 1,1
21 23.3.2019 01:30 0 91,5 1,5
22 23.3.2019 01:00 0 91,6 1,9
23 23.3.2019 00:30 0 89,5 2,5
24 23.3.2019 00:00 0 89,6 2,7
25 22.3.2019 23:30 0 89,3 2,6
26 22.3.2019 23:00 0 85,5 3,6
27 22.3.2019 22:30 0 86,4 3,4
28 22.3.2019 22:00 0 83,6 4,3
29 22.3.2019 21:30 0 85,4 4,5
30 22.3.2019 21:00 0 85,7 4,5
31 22.3.2019 20:30 0 81,1 5,4
32 22.3.2019 20:00 0 74,1 6,9
33 22.3.2019 19:30 0 74,5 7,5
34 22.3.2019 19:00 0 65,7 9,1
35 22.3.2019 18:30 0 56 11,8
36 22.3.2019 18:00 0 46,6 13,7
37 22.3.2019 17:30 0 35,4 16,1
38 22.3.2019 17:00 0 32,8 17,1
39 22.3.2019 16:30 0 34,1 17,2
40 22.3.2019 16:00 0 37,1 16,2
41 22.3.2019 15:30 0 37,7 16,6
42 22.3.2019 15:00 0 39,6 16
43 22.3.2019 14:30 0 41 15,5
44 22.3.2019 14:00 0 42,7 15
45 22.3.2019 13:30 0 43,3 14
46 22.3.2019 13:00 0 45,7 13,3
47 22.3.2019 12:30 0 45,7 12,5
48 22.3.2019 12:00 0 45,5 11,9
© 2011 Ministrstvo za kmetijstvo, gozdarstvo in prehrano. Vse pravice pridržane.